createdAt,value
2023-03-22T00:01:24.973Z,94097.03
2023-03-22T00:03:52.318Z,94099.94
2023-03-22T00:06:19.338Z,94096.38
2023-03-22T00:08:50.570Z,94093.75
2023-03-22T00:11:17.937Z,94093.56
2023-03-22T00:13:46.869Z,94080.06
2023-03-22T00:16:14.851Z,94083.72
2023-03-22T00:18:41.733Z,94087.41
2023-03-22T00:21:13.352Z,94090.31
2023-03-22T00:23:40.790Z,94088.59
2023-03-22T00:26:08.567Z,94089.16
2023-03-22T00:28:36.564Z,94082.72
2023-03-22T00:31:05.274Z,94087.47
2023-03-22T00:33:33.403Z,94080.41
2023-03-22T00:36:08.652Z,94077.81
2023-03-22T00:38:42.942Z,94078.56
2023-03-22T00:41:18.958Z,94085.63
2023-03-22T00:43:47.071Z,94076.38
2023-03-22T00:46:15.277Z,94071.44
2023-03-22T00:48:43.384Z,94070.97
2023-03-22T00:51:10.811Z,94069.72
2023-03-22T00:53:37.620Z,94068.75
2023-03-22T00:56:05.630Z,94083.44
2023-03-22T00:58:41.407Z,94071.09
2023-03-22T01:01:08.221Z,94069.97
2023-03-22T01:03:35.046Z,94069.34
2023-03-22T01:06:01.853Z,94066.00
2023-03-22T01:08:33.221Z,94075.34
2023-03-22T01:11:01.162Z,94069.06
2023-03-22T01:13:27.956Z,94071.69
2023-03-22T01:15:54.416Z,94058.94
2023-03-22T01:18:20.855Z,94036.59
2023-03-22T01:20:47.435Z,94061.53
2023-03-22T01:23:13.929Z,94051.72
2023-03-22T01:25:40.873Z,94052.00
2023-03-22T01:28:08.655Z,94049.41
2023-03-22T01:30:35.768Z,94052.69
2023-03-22T01:33:02.823Z,94049.31
2023-03-22T01:35:33.149Z,94051.81
2023-03-22T01:37:59.757Z,94050.69
2023-03-22T01:40:27.521Z,94044.31
2023-03-22T01:42:55.230Z,94043.34
2023-03-22T01:45:22.426Z,94035.84
2023-03-22T01:47:54.874Z,94042.88
2023-03-22T01:50:22.978Z,94042.41
2023-03-22T01:52:52.128Z,94036.72
2023-03-22T01:55:26.009Z,94031.59
2023-03-22T01:58:05.460Z,94030.91
2023-03-22T02:00:41.274Z,94032.31
2023-03-22T02:03:37.073Z,94020.78
2023-03-22T02:06:04.351Z,94026.84
2023-03-22T02:08:32.375Z,94031.38
2023-03-22T02:11:03.247Z,94030.09
2023-03-22T02:14:09.736Z,94028.09
2023-03-22T02:17:06.803Z,94038.28
2023-03-22T02:20:13.326Z,94034.44
2023-03-22T02:23:00.764Z,94032.41
2023-03-22T02:25:40.399Z,94029.88
2023-03-22T02:28:29.341Z,94029.00
2023-03-22T02:31:14.041Z,94023.41
2023-03-22T02:34:15.530Z,94017.22
2023-03-22T02:36:58.303Z,94011.34
2023-03-22T02:39:35.300Z,94022.03
2023-03-22T02:42:17.579Z,94012.19
2023-03-22T02:45:00.383Z,94009.09
2023-03-22T02:47:38.551Z,94004.47
2023-03-22T02:50:28.495Z,94005.22
2023-03-22T02:53:12.842Z,93997.75
2023-03-22T02:55:51.168Z,94005.53
2023-03-22T02:58:22.865Z,94002.72
2023-03-22T03:00:54.423Z,93994.25
2023-03-22T03:03:25.486Z,94006.75
2023-03-22T03:05:55.851Z,94003.66
2023-03-22T03:08:24.902Z,93999.31
2023-03-22T03:10:53.272Z,94007.88
2023-03-22T03:13:20.005Z,94008.94
2023-03-22T03:15:52.623Z,94005.28
2023-03-22T03:18:29.584Z,94000.56
2023-03-22T03:21:30.233Z,94001.34
2023-03-22T03:24:36.618Z,94003.75
2023-03-22T03:27:12.821Z,94013.78
2023-03-22T03:30:02.886Z,94016.81
2023-03-22T03:32:52.448Z,94020.03
2023-03-22T03:35:27.215Z,94018.09
2023-03-22T03:37:59.197Z,94022.88
2023-03-22T03:40:35.183Z,94016.03
2023-03-22T03:43:04.703Z,94021.63
2023-03-22T03:45:31.160Z,94014.22
2023-03-22T03:48:01.007Z,94018.16
2023-03-22T03:50:28.008Z,94020.03
2023-03-22T03:52:56.054Z,94020.56
2023-03-22T03:55:24.087Z,94019.31
2023-03-22T03:57:50.792Z,94014.41
2023-03-22T04:00:17.975Z,94021.16
2023-03-22T04:03:06.285Z,94011.31
2023-03-22T04:05:45.824Z,94013.41
2023-03-22T04:08:12.522Z,94025.81
2023-03-22T04:10:40.685Z,94029.97
2023-03-22T04:13:07.371Z,94025.03
2023-03-22T04:15:33.904Z,94027.38
2023-03-22T04:18:03.744Z,94026.91
2023-03-22T04:20:31.536Z,94025.94
2023-03-22T04:22:58.070Z,94021.78
2023-03-22T04:25:29.815Z,94024.38
2023-03-22T04:28:04.161Z,94026.00
2023-03-22T04:30:36.361Z,94024.44
2023-03-22T04:33:22.783Z,94024.50
2023-03-22T04:36:10.331Z,94027.69
2023-03-22T04:38:49.449Z,94027.25
2023-03-22T04:41:20.414Z,94027.81
2023-03-22T04:43:50.921Z,94017.44
2023-03-22T04:46:17.937Z,94021.06
2023-03-22T04:48:50.850Z,94023.97
2023-03-22T04:51:18.108Z,94022.88
2023-03-22T04:54:00.369Z,94016.66
2023-03-22T04:56:27.045Z,94014.84
2023-03-22T04:58:54.178Z,94013.00
2023-03-22T05:01:20.654Z,94012.75
2023-03-22T05:03:54.133Z,94013.72
2023-03-22T05:06:22.616Z,94015.28
2023-03-22T05:09:05.986Z,94017.88
2023-03-22T05:11:32.484Z,94012.97
2023-03-22T05:14:13.053Z,94014.34
2023-03-22T05:16:40.740Z,94023.97
2023-03-22T05:19:13.889Z,94020.84
2023-03-22T05:21:44.151Z,94025.78
2023-03-22T05:24:11.563Z,94021.13
2023-03-22T05:26:42.298Z,94015.22
2023-03-22T05:29:11.096Z,94019.63
2023-03-22T05:32:00.747Z,94018.13
2023-03-22T05:34:35.257Z,94021.00
2023-03-22T05:37:10.207Z,94023.84
2023-03-22T05:39:47.676Z,94024.88
2023-03-22T05:42:14.271Z,94016.03
2023-03-22T05:44:40.919Z,94020.66
2023-03-22T05:47:11.489Z,94019.56
2023-03-22T05:49:45.599Z,94014.84
2023-03-22T05:52:12.303Z,94013.47
2023-03-22T05:54:56.743Z,94004.84
2023-03-22T05:57:23.288Z,94009.78
2023-03-22T05:59:49.815Z,94007.38
2023-03-22T06:02:23.720Z,94009.13
2023-03-22T06:04:50.302Z,94012.44
2023-03-22T06:07:18.204Z,94011.09
2023-03-22T06:09:50.142Z,94005.63
2023-03-22T06:12:24.719Z,94009.00
2023-03-22T06:15:08.822Z,94007.97
2023-03-22T06:17:35.502Z,94004.28
2023-03-22T06:20:11.842Z,94000.13
2023-03-22T06:22:41.319Z,93999.81
2023-03-22T06:25:09.362Z,94008.03
2023-03-22T06:27:40.499Z,94011.53
2023-03-22T06:30:08.150Z,94003.13
2023-03-22T06:32:45.912Z,94001.44
2023-03-22T06:35:14.213Z,93998.72
2023-03-22T06:37:40.688Z,94004.06
2023-03-22T06:40:08.989Z,94003.13
2023-03-22T06:42:35.801Z,93998.38
2023-03-22T06:45:08.650Z,94003.63
2023-03-22T06:47:37.746Z,93995.66
2023-03-22T06:50:04.387Z,93996.75
2023-03-22T06:52:50.818Z,93990.06
2023-03-22T06:55:17.653Z,93992.47
2023-03-22T06:57:44.095Z,93990.47
2023-03-22T07:00:11.204Z,93990.50
2023-03-22T07:02:37.688Z,93984.81
2023-03-22T07:05:28.129Z,93986.06
2023-03-22T07:07:54.691Z,93986.09
2023-03-22T07:10:21.328Z,93994.41
2023-03-22T07:12:48.643Z,93982.88
2023-03-22T07:15:17.576Z,93985.44
2023-03-22T07:18:04.417Z,93992.75
2023-03-22T07:20:36.754Z,93996.50
2023-03-22T07:23:04.569Z,93995.78
2023-03-22T07:25:35.478Z,94003.53
2023-03-22T07:28:16.268Z,93998.66
2023-03-22T07:30:43.645Z,94003.94
2023-03-22T07:33:11.169Z,94003.50
2023-03-22T07:35:39.755Z,93990.66
2023-03-22T07:38:06.509Z,93983.56
2023-03-22T07:40:33.610Z,94006.91
2023-03-22T07:43:00.411Z,94005.41
2023-03-22T07:45:57.997Z,94008.84
2023-03-22T07:48:43.159Z,94010.94
2023-03-22T07:51:28.138Z,94004.53
2023-03-22T07:53:54.584Z,94002.84
2023-03-22T07:56:21.181Z,94007.66
2023-03-22T07:58:47.628Z,94012.13
2023-03-22T08:01:14.153Z,94005.72
2023-03-22T08:04:03.589Z,94007.44
2023-03-22T08:06:49.053Z,93999.06
2023-03-22T08:09:16.354Z,94002.16
2023-03-22T08:11:42.891Z,93999.25
2023-03-22T08:14:09.722Z,94006.19
2023-03-22T08:16:38.476Z,94005.91
2023-03-22T08:19:05.959Z,94006.69
2023-03-22T08:21:36.213Z,94001.94
2023-03-22T08:24:04.119Z,94009.47
2023-03-22T08:26:39.592Z,94007.16
2023-03-22T08:29:14.832Z,94004.13
2023-03-22T08:31:46.937Z,94000.91
2023-03-22T08:34:13.364Z,94013.81
2023-03-22T08:36:39.801Z,94005.19
2023-03-22T08:39:08.315Z,94004.72
2023-03-22T08:41:45.884Z,94011.19
2023-03-22T08:44:12.899Z,94001.00
2023-03-22T08:46:40.262Z,94012.81
2023-03-22T08:49:06.847Z,94017.56
2023-03-22T08:51:39.069Z,94019.13
2023-03-22T08:54:13.627Z,94011.09
2023-03-22T08:57:19.218Z,94006.44
2023-03-22T08:59:58.789Z,94005.03
2023-03-22T09:02:33.366Z,93995.50
2023-03-22T09:05:00.597Z,94010.84
2023-03-22T09:07:27.752Z,93998.69
2023-03-22T09:10:09.677Z,93999.41
2023-03-22T09:12:39.337Z,93996.94
2023-03-22T09:15:07.414Z,93998.75
2023-03-22T09:17:36.349Z,94015.66
2023-03-22T09:20:12.504Z,93994.69
2023-03-22T09:22:41.825Z,93993.28
2023-03-22T09:25:12.524Z,94011.84
2023-03-22T09:27:41.959Z,94001.66
2023-03-22T09:30:09.185Z,94003.75
2023-03-22T09:32:35.904Z,93995.84
2023-03-22T09:35:04.262Z,93990.28
2023-03-22T09:37:39.192Z,93988.91
2023-03-22T09:40:07.792Z,93982.09
2023-03-22T09:42:47.324Z,93975.38
2023-03-22T09:45:20.503Z,93972.13
2023-03-22T09:47:51.078Z,93963.41
2023-03-22T09:50:23.701Z,93963.50
2023-03-22T09:52:51.258Z,93959.56
2023-03-22T09:55:30.326Z,93949.72
2023-03-22T09:58:13.684Z,93954.97
2023-03-22T10:00:51.191Z,93947.31
2023-03-22T10:03:42.489Z,93945.25
2023-03-22T10:06:12.391Z,93958.06
2023-03-22T10:08:54.110Z,93954.78
2023-03-22T10:11:57.282Z,93948.25
2023-03-22T10:14:36.928Z,93950.66
2023-03-22T10:17:08.784Z,93942.53
2023-03-22T10:19:47.129Z,93948.34
2023-03-22T10:22:16.958Z,93941.88
2023-03-22T10:24:46.820Z,93933.13
2023-03-22T10:27:19.574Z,93938.25
2023-03-22T10:29:51.145Z,93938.16
2023-03-22T10:32:22.480Z,93926.97
2023-03-22T10:34:49.428Z,93947.84
2023-03-22T10:37:27.848Z,93940.75
2023-03-22T10:39:57.995Z,93934.16
2023-03-22T10:42:27.925Z,93940.75
2023-03-22T10:44:56.110Z,93920.13
2023-03-22T10:47:40.312Z,93920.88
2023-03-22T10:50:26.500Z,93915.91
2023-03-22T10:53:04.532Z,93913.16
2023-03-22T10:55:31.095Z,93916.75
2023-03-22T10:58:16.582Z,93910.13
2023-03-22T11:00:49.144Z,93921.28
2023-03-22T11:03:34.457Z,93912.81
2023-03-22T11:06:12.793Z,93911.97
2023-03-22T11:08:46.833Z,93902.59
2023-03-22T11:11:17.460Z,93892.06
2023-03-22T11:13:50.308Z,93894.97
2023-03-22T11:16:18.041Z,93888.34
2023-03-22T11:18:44.574Z,93875.91
2023-03-22T11:21:15.030Z,93887.16
2023-03-22T11:23:50.605Z,93886.66
2023-03-22T11:29:04.503Z,93882.81
2023-03-22T11:31:48.883Z,93869.34
2023-03-22T11:34:18.649Z,93871.69
2023-03-22T11:36:52.701Z,93867.34
2023-03-22T11:39:19.120Z,93876.25
2023-03-22T11:41:45.737Z,93876.09
2023-03-22T11:44:16.549Z,93863.41
2023-03-22T11:46:54.462Z,93865.84
2023-03-22T11:49:27.009Z,93863.63
2023-03-22T11:51:55.633Z,93855.84
2023-03-22T11:54:35.485Z,93853.88
2023-03-22T11:57:13.006Z,93861.25
2023-03-22T11:59:53.229Z,93857.28
2023-03-22T12:02:38.032Z,93853.63
2023-03-22T12:05:11.102Z,93843.38
2023-03-22T12:07:38.546Z,93836.38
2023-03-22T12:10:22.803Z,93836.81
2023-03-22T12:12:58.191Z,93842.69
2023-03-22T12:15:34.597Z,93839.00
2023-03-22T12:18:15.637Z,93837.84
2023-03-22T12:20:53.568Z,93830.34
2023-03-22T12:23:23.263Z,93832.22
2023-03-22T12:26:02.264Z,93828.84
2023-03-22T12:28:34.368Z,93834.69
2023-03-22T12:31:03.662Z,93820.88
2023-03-22T12:33:47.256Z,93817.19
2023-03-22T12:36:20.526Z,93803.44
2023-03-22T12:38:54.022Z,93814.81
2023-03-22T12:41:37.263Z,93813.56
2023-03-22T12:44:08.066Z,93814.47
2023-03-22T12:46:39.947Z,93818.66
2023-03-22T12:49:26.337Z,93806.69
2023-03-22T12:51:56.718Z,93811.50
2023-03-22T12:54:25.325Z,93813.44
2023-03-22T12:56:53.669Z,93809.06
2023-03-22T12:59:26.520Z,93816.28
2023-03-22T13:02:20.157Z,93813.53
2023-03-22T13:04:57.972Z,93805.50
2023-03-22T13:07:38.919Z,93803.69
2023-03-22T13:10:34.065Z,93803.50
2023-03-22T13:13:21.746Z,93803.81
2023-03-22T13:15:59.257Z,93803.13
2023-03-22T13:18:38.241Z,93792.41
2023-03-22T13:21:29.767Z,93798.00
2023-03-22T13:24:05.886Z,93785.41
2023-03-22T13:26:52.707Z,93789.72
2023-03-22T13:29:20.891Z,93779.56
2023-03-22T13:31:58.511Z,93776.88
2023-03-22T13:34:38.500Z,93774.16
2023-03-22T13:37:10.987Z,93780.19
2023-03-22T13:39:39.270Z,93766.44
2023-03-22T13:42:19.794Z,93771.75
2023-03-22T13:44:53.799Z,93765.34
2023-03-22T13:47:45.774Z,93768.72
2023-03-22T13:50:18.709Z,93764.00
2023-03-22T13:53:03.798Z,93769.16
2023-03-22T13:55:53.268Z,93772.44
2023-03-22T13:58:52.291Z,93759.75
2023-03-22T14:01:29.933Z,93751.13
2023-03-22T14:04:01.154Z,93751.16
2023-03-22T14:06:33.677Z,93744.16
2023-03-22T14:09:43.517Z,93749.97
2023-03-22T14:12:32.362Z,93751.81
2023-03-22T14:15:02.608Z,93744.50
2023-03-22T14:17:41.870Z,93742.84
2023-03-22T14:20:15.253Z,93747.09
